Time;durP1;ratioP1;P1;durP2;ratioP2;P2;SDS_P1;SDS_P2;PMS_P1;PMS_P2;Temp;Humidity;BMP_temperature;BMP_pressure;BME280_temperature;BME280_humidity;BME280_pressure;Samples;Min_cycle;Max_cycle;Signal;HPM_P1;HPM_P2
2021/11/16 00:01:39;;;;;;;30.90;22.95;;;12.60;87.00;;;;;;4991959;28;20049;-78
2021/11/16 00:04:06;;;;;;;29.42;22.88;;;12.60;87.00;;;;;;4990910;28;20033;-83
2021/11/16 00:06:33;;;;;;;29.25;21.98;;;12.60;87.10;;;;;;5009838;28;20293;-75
2021/11/16 00:09:02;;;;;;;30.20;22.60;;;12.50;86.90;;;;;;5008982;28;20497;-83
2021/11/16 00:11:28;;;;;;;27.30;21.33;;;12.50;86.90;;;;;;5009207;28;20518;-73
2021/11/16 00:13:55;;;;;;;32.10;22.45;;;12.50;86.90;;;;;;5008619;28;20136;-76
2021/11/16 00:16:21;;;;;;;30.92;20.92;;;12.50;86.80;;;;;;4991131;28;20048;-76
2021/11/16 00:18:55;;;;;;;30.33;23.10;;;12.50;86.90;;;;;;4991287;28;20567;-75
2021/11/16 00:21:24;;;;;;;30.02;23.15;;;12.60;87.10;;;;;;5008150;28;20576;-74
2021/11/16 00:23:57;;;;;;;29.50;22.60;;;12.50;86.90;;;;;;4991424;28;20494;-73
2021/11/16 00:26:24;;;;;;;29.50;22.02;;;12.50;86.90;;;;;;5001545;28;20070;-82
2021/11/16 00:28:51;;;;;;;31.38;21.95;;;12.50;86.90;;;;;;4995632;28;20045;-73
2021/11/16 00:31:18;;;;;;;28.95;21.83;;;12.50;86.90;;;;;;4991104;28;20501;-74
2021/11/16 00:33:45;;;;;;;30.63;22.58;;;12.50;87.50;;;;;;4989903;28;20034;-73
2021/11/16 00:36:11;;;;;;;31.05;21.70;;;12.50;87.00;;;;;;5008126;28;20514;-73
2021/11/16 00:38:39;;;;;;;28.27;22.73;;;12.50;87.00;;;;;;4990710;28;20042;-77
2021/11/16 00:41:05;;;;;;;30.38;22.52;;;12.50;87.00;;;;;;4991520;28;20417;-73
2021/11/16 00:43:31;;;;;;;33.67;23.55;;;12.50;87.00;;;;;;5008620;28;20040;-73
2021/11/16 00:45:57;;;;;;;30.92;21.38;;;12.50;87.00;;;;;;5009357;28;20041;-72
2021/11/16 00:48:25;;;;;;;30.90;22.58;;;12.50;87.00;;;;;;5011371;28;20079;-77
2021/11/16 00:50:56;;;;;;;27.58;21.63;;;12.50;87.00;;;;;;5031541;28;20049;-74
2021/11/16 00:53:24;;;;;;;29.05;22.60;;;12.40;86.80;;;;;;5019837;28;20465;-74
2021/11/16 00:55:51;;;;;;;31.90;22.27;;;12.50;87.00;;;;;;5018206;28;20721;-77
2021/11/16 00:58:18;;;;;;;28.63;22.67;;;12.40;86.80;;;;;;4974536;28;20073;-75
2021/11/16 01:00:44;;;;;;;28.88;21.35;;;12.40;86.80;;;;;;5008066;28;20061;-73
2021/11/16 01:03:12;;;;;;;28.65;21.55;;;12.40;86.80;;;;;;5007317;28;20034;-74
2021/11/16 01:05:39;;;;;;;30.88;22.05;;;12.40;86.90;;;;;;4989660;28;20442;-78
2021/11/16 01:08:10;;;;;;;30.30;21.95;;;12.40;86.80;;;;;;5007147;28;20045;-74
2021/11/16 01:10:40;;;;;;;30.20;21.20;;;12.40;86.80;;;;;;5007414;28;20538;-75
2021/11/16 01:13:07;;;;;;;31.52;23.90;;;12.40;86.90;;;;;;5007729;28;20441;-82
2021/11/16 01:15:36;;;;;;;28.30;21.92;;;12.40;86.90;;;;;;5008208;28;20129;-81
2021/11/16 01:18:04;;;;;;;34.60;22.83;;;12.40;86.90;;;;;;5007946;28;20471;-77
2021/11/16 01:20:31;;;;;;;32.88;23.67;;;12.40;86.90;;;;;;5010034;28;20030;-86
2021/11/16 01:22:59;;;;;;;32.33;24.92;;;12.30;86.80;;;;;;4973980;28;20034;-78
2021/11/16 01:25:28;;;;;;;34.22;23.42;;;12.30;86.80;;;;;;5008225;28;20055;-79
2021/11/16 01:27:59;;;;;;;26.40;21.65;;;12.40;87.00;;;;;;5007613;28;20392;-80
2021/11/16 01:30:27;;;;;;;31.65;24.00;;;12.40;87.00;;;;;;5007802;28;20025;-86
2021/11/16 01:35:32;;;;;;;31.02;23.08;;;12.30;86.80;;;;;;5007315;28;20087;-75
2021/11/16 01:37:58;;;;;;;30.92;22.48;;;12.30;86.80;;;;;;5007086;28;20038;-78
2021/11/16 01:40:24;;;;;;;32.13;23.10;;;12.30;86.80;;;;;;4989592;28;20037;-83
2021/11/16 01:42:51;;;;;;;30.98;22.38;;;12.30;86.80;;;;;;5007829;28;20091;-76
2021/11/16 01:45:19;;;;;;;29.65;22.25;;;12.30;86.90;;;;;;5007601;28;20239;-78
2021/11/16 01:47:46;;;;;;;33.78;22.67;;;12.30;86.80;;;;;;5007611;28;20184;-83
2021/11/16 01:50:14;;;;;;;29.48;21.98;;;12.30;86.80;;;;;;5007136;28;20022;-80
2021/11/16 01:52:40;;;;;;;29.92;22.17;;;12.30;86.90;;;;;;5006727;28;20041;-73
2021/11/16 01:55:09;;;;;;;29.45;21.05;;;12.30;86.90;;;;;;4972936;28;20036;-80
2021/11/16 01:57:35;;;;;;;28.48;22.85;;;12.20;86.70;;;;;;4989672;28;20038;-74
2021/11/16 02:00:05;;;;;;;30.15;22.52;;;12.20;86.70;;;;;;5006664;28;20055;-76
2021/11/16 02:02:34;;;;;;;29.05;22.70;;;12.20;86.70;;;;;;5007193;28;20068;-80
2021/11/16 02:04:59;;;;;;;28.25;22.25;;;12.20;86.70;;;;;;5007298;28;20128;-79
2021/11/16 02:07:26;;;;;;;31.52;22.10;;;12.20;86.70;;;;;;5007589;28;20065;-83
2021/11/16 02:09:52;;;;;;;29.42;20.65;;;12.20;86.70;;;;;;4988806;28;20026;-77
2021/11/16 02:12:18;;;;;;;30.38;22.27;;;12.20;86.80;;;;;;5007132;28;20044;-80
2021/11/16 02:14:44;;;;;;;29.45;21.85;;;12.20;86.80;;;;;;4988988;28;20065;-76
2021/11/16 02:17:10;;;;;;;29.65;23.00;;;12.20;86.90;;;;;;5007318;28;20497;-82
2021/11/16 02:19:37;;;;;;;31.67;23.40;;;12.20;86.90;;;;;;5007773;28;20033;-81
2021/11/16 02:22:03;;;;;;;32.53;23.95;;;12.20;86.90;;;;;;5006531;28;20519;-78
2021/11/16 02:24:29;;;;;;;29.70;22.23;;;12.20;87.00;;;;;;4991447;28;20117;-76
2021/11/16 02:26:56;;;;;;;31.65;23.65;;;12.20;87.00;;;;;;4954265;28;20030;-74
2021/11/16 02:29:22;;;;;;;28.45;21.52;;;12.20;87.00;;;;;;4997249;28;20504;-73
2021/11/16 02:31:55;;;;;;;30.33;21.67;;;12.10;86.80;;;;;;4975028;23;20051;-81
2021/11/16 02:34:23;;;;;;;29.02;21.85;;;12.20;87.10;;;;;;4966021;28;20035;-78
2021/11/16 02:36:49;;;;;;;30.77;23.08;;;12.10;86.80;;;;;;4965835;28;20050;-80
2021/11/16 02:39:16;;;;;;;29.75;23.00;;;12.10;86.90;;;;;;4950660;29;20035;-76
2021/11/16 02:41:52;;;;;;;30.90;22.50;;;12.10;86.90;;;;;;4950744;28;20087;-81
2021/11/16 02:44:19;;;;;;;29.17;21.95;;;12.10;86.90;;;;;;4951375;28;20031;-81
2021/11/16 02:46:46;;;;;;;31.90;23.65;;;12.10;86.90;;;;;;5004255;23;20053;-78
2021/11/16 02:49:13;;;;;;;30.17;22.38;;;12.10;86.90;;;;;;5054846;28;20499;-78
2021/11/16 02:51:39;;;;;;;32.28;24.48;;;12.10;86.90;;;;;;5037053;28;20040;-79
2021/11/16 02:54:15;;;;;;;30.65;22.58;;;12.10;86.90;;;;;;5055102;28;20111;-83
2021/11/16 02:56:45;;;;;;;29.73;22.88;;;12.10;87.00;;;;;;5054785;28;20029;-79
2021/11/16 02:59:12;;;;;;;29.65;23.42;;;12.10;87.00;;;;;;5055163;28;20123;-81
2021/11/16 03:01:39;;;;;;;31.95;22.35;;;12.10;86.90;;;;;;5025865;28;20029;-82
2021/11/16 03:04:05;;;;;;;29.73;22.05;;;12.10;87.00;;;;;;5034904;28;20037;-82
2021/11/16 03:06:32;;;;;;;29.77;22.98;;;12.10;87.00;;;;;;5017648;28;20477;-85
2021/11/16 03:08:58;;;;;;;31.60;23.40;;;12.10;87.00;;;;;;5034298;28;20037;-80
2021/11/16 03:11:25;;;;;;;32.28;23.92;;;12.10;87.00;;;;;;5034294;28;20170;-78
2021/11/16 03:13:51;;;;;;;31.77;24.42;;;12.10;87.00;;;;;;5034736;28;20122;-80
2021/11/16 03:16:21;;;;;;;32.42;23.85;;;12.10;87.10;;;;;;5017062;28;20025;-80
2021/11/16 03:18:50;;;;;;;29.50;21.95;;;12.10;87.10;;;;;;5034306;28;20040;-78
2021/11/16 03:21:18;;;;;;;30.85;22.42;;;12.10;87.10;;;;;;5000615;28;20025;-80
2021/11/16 03:23:45;;;;;;;32.22;22.27;;;12.10;87.10;;;;;;5017140;28;20072;-84
2021/11/16 03:26:13;;;;;;;32.78;23.27;;;12.10;87.10;;;;;;5017220;28;20033;-81
2021/11/16 03:28:44;;;;;;;30.35;21.98;;;12.10;87.10;;;;;;5000584;28;20033;-83
2021/11/16 03:33:45;;;;;;;30.17;22.55;;;12.10;87.10;;;;;;5034284;28;20108;-81
2021/11/16 03:36:11;;;;;;;30.00;23.25;;;12.10;87.10;;;;;;5016501;28;20039;-82
2021/11/16 03:38:39;;;;;;;31.10;22.63;;;12.10;87.10;;;;;;5016342;28;20041;-81
2021/11/16 03:41:06;;;;;;;30.27;22.58;;;12.10;87.10;;;;;;5016452;28;20025;-83
2021/11/16 03:43:35;;;;;;;31.80;22.55;;;12.10;87.10;;;;;;5034287;28;20033;-80
2021/11/16 03:46:01;;;;;;;29.95;23.40;;;12.10;87.10;;;;;;5030339;28;20073;-82
2021/11/16 03:48:28;;;;;;;28.02;20.85;;;12.10;87.10;;;;;;4996464;28;20084;-80
2021/11/16 03:50:55;;;;;;;28.05;22.08;;;12.10;87.10;;;;;;5014074;28;20057;-78
2021/11/16 03:53:21;;;;;;;30.50;23.30;;;12.10;87.10;;;;;;5013906;28;20114;-79
2021/11/16 03:55:48;;;;;;;29.15;22.30;;;12.10;87.10;;;;;;5013386;28;20021;-79
2021/11/16 03:58:18;;;;;;;28.45;22.60;;;12.10;87.10;;;;;;4996390;28;20124;-83
2021/11/16 04:00:50;;;;;;;29.13;22.33;;;12.10;87.10;;;;;;5014774;28;20045;-82
2021/11/16 04:03:17;;;;;;;27.60;21.95;;;12.10;87.10;;;;;;5014137;28;20037;-82
2021/11/16 04:05:44;;;;;;;30.63;22.05;;;12.10;87.10;;;;;;4996374;28;20509;-80
2021/11/16 04:08:10;;;;;;;30.80;21.58;;;12.10;87.10;;;;;;5013534;28;20076;-82
2021/11/16 04:10:36;;;;;;;31.45;22.55;;;12.10;87.10;;;;;;5013615;28;20065;-79
2021/11/16 04:13:03;;;;;;;29.20;21.65;;;12.10;87.10;;;;;;4995924;28;20037;-79
2021/11/16 04:15:31;;;;;;;31.05;22.92;;;12.10;87.10;;;;;;5014115;28;20085;-83
2021/11/16 04:17:58;;;;;;;34.97;23.30;;;12.00;86.90;;;;;;5013778;28;20265;-87
2021/11/16 04:20:31;;;;;;;30.48;22.60;;;12.10;87.10;;;;;;4996497;28;20029;-81
2021/11/16 04:22:58;;;;;;;26.70;21.65;;;12.10;87.20;;;;;;5013646;28;20026;-79
2021/11/16 04:25:26;;;;;;;30.08;23.35;;;12.00;87.00;;;;;;5013593;28;20030;-80
2021/11/16 04:27:52;;;;;;;32.30;22.33;;;12.10;87.20;;;;;;4995697;28;20488;-81
2021/11/16 04:30:21;;;;;;;30.58;23.08;;;12.10;87.20;;;;;;5013316;28;20498;-78
2021/11/16 04:32:48;;;;;;;27.65;21.40;;;12.10;87.20;;;;;;5013630;28;20045;-82
2021/11/16 04:35:15;;;;;;;28.90;22.20;;;12.10;87.30;;;;;;4995912;28;20029;-83
2021/11/16 04:37:43;;;;;;;31.77;23.75;;;12.10;87.30;;;;;;4996064;28;20038;-82
2021/11/16 04:40:11;;;;;;;33.08;23.10;;;12.10;87.30;;;;;;5012471;28;20033;-79
2021/11/16 04:42:38;;;;;;;30.88;23.48;;;12.10;87.30;;;;;;5013092;28;20120;-79
2021/11/16 04:45:08;;;;;;;29.27;22.83;;;12.10;87.30;;;;;;5013272;28;20018;-78
2021/11/16 04:47:45;;;;;;;26.20;20.80;;;12.10;87.40;;;;;;5010709;28;20527;-83
2021/11/16 04:59:33;;;;;;;27.98;22.17;;;12.10;87.40;;;;;;5014965;28;20033;-81
2021/11/16 05:04:08;;;;;;;26.42;21.40;;;12.10;87.30;;;;;;5032614;28;20423;-84
2021/11/16 05:06:34;;;;;;;29.63;22.35;;;12.10;87.30;;;;;;5031713;28;20045;-84
2021/11/16 05:09:00;;;;;;;28.63;21.63;;;12.10;87.40;;;;;;5032793;28;20450;-81
2021/11/16 05:11:26;;;;;;;30.60;22.42;;;12.10;87.40;;;;;;5031979;28;20054;-81
2021/11/16 05:13:53;;;;;;;29.33;22.90;;;12.10;87.40;;;;;;5014626;28;20072;-79
2021/11/16 05:16:25;;;;;;;27.10;21.15;;;12.10;87.40;;;;;;5032173;28;20057;-83
2021/11/16 05:18:51;;;;;;;26.45;21.27;;;12.10;87.40;;;;;;5032118;28;20041;-78
2021/11/16 05:21:18;;;;;;;29.63;21.15;;;12.10;87.40;;;;;;5032427;28;20025;-85
2021/11/16 05:23:56;;;;;;;29.70;21.08;;;12.10;87.40;;;;;;5014620;28;20026;-85
2021/11/16 05:26:24;;;;;;;26.73;20.75;;;12.10;87.40;;;;;;5032521;28;20075;-84
2021/11/16 05:28:50;;;;;;;28.08;21.83;;;12.10;87.40;;;;;;5031716;28;20025;-87
2021/11/16 05:31:17;;;;;;;30.90;23.52;;;12.10;87.40;;;;;;5014895;28;20032;-79
2021/11/16 05:33:44;;;;;;;29.23;21.75;;;12.10;87.40;;;;;;5014371;28;20476;-81
2021/11/16 05:36:11;;;;;;;29.30;20.80;;;12.00;87.30;;;;;;5032001;28;20081;-85
2021/11/16 05:38:39;;;;;;;29.35;22.85;;;12.00;87.30;;;;;;5014266;28;20041;-82
2021/11/16 05:41:06;;;;;;;29.23;21.00;;;12.00;87.30;;;;;;5031638;28;20492;-87
2021/11/16 05:43:33;;;;;;;25.63;20.10;;;12.00;87.30;;;;;;5014599;28;20029;-84
2021/11/16 05:46:00;;;;;;;27.70;21.15;;;12.00;87.40;;;;;;5011917;28;20050;-87
2021/11/16 05:48:36;;;;;;;28.73;20.52;;;12.00;87.40;;;;;;5008220;28;20132;-82
2021/11/16 05:51:03;;;;;;;28.45;21.35;;;12.00;87.40;;;;;;5008410;28;20172;-80
2021/11/16 05:53:30;;;;;;;29.13;23.50;;;12.00;87.40;;;;;;4990956;28;20026;-79
2021/11/16 05:55:56;;;;;;;28.42;22.60;;;12.00;87.40;;;;;;5008665;28;20025;-79
2021/11/16 05:58:23;;;;;;;26.60;20.70;;;12.00;87.40;;;;;;5009045;28;20400;-85
2021/11/16 06:00:49;;;;;;;26.35;21.70;;;12.00;87.40;;;;;;5008970;28;20032;-82
2021/11/16 06:03:15;;;;;;;28.38;20.67;;;12.00;87.40;;;;;;4989833;28;20088;-80
2021/11/16 06:05:41;;;;;;;28.65;21.48;;;12.00;87.40;;;;;;4990108;28;20057;-80
2021/11/16 06:08:08;;;;;;;26.63;21.23;;;12.00;87.40;;;;;;5007687;28;20345;-78
2021/11/16 06:10:35;;;;;;;29.27;22.13;;;12.00;87.40;;;;;;4989538;28;20057;-78
2021/11/16 06:13:01;;;;;;;29.08;20.20;;;12.00;87.40;;;;;;4989745;28;20477;-79
2021/11/16 06:15:27;;;;;;;26.60;20.90;;;12.00;87.70;;;;;;4989529;28;20061;-81
2021/11/16 06:17:55;;;;;;;28.67;20.42;;;12.00;87.40;;;;;;4989053;28;20397;-81
2021/11/16 06:20:24;;;;;;;27.40;21.98;;;12.00;87.40;;;;;;5006833;28;20022;-81
2021/11/16 06:22:50;;;;;;;29.95;22.33;;;12.00;87.40;;;;;;5006706;28;20061;-84
2021/11/16 06:25:16;;;;;;;28.20;21.02;;;12.00;87.40;;;;;;4989729;28;20029;-80
2021/11/16 06:27:45;;;;;;;31.15;21.48;;;12.00;87.40;;;;;;5007573;28;20449;-79
2021/11/16 06:30:11;;;;;;;29.67;21.95;;;12.00;87.40;;;;;;4989259;28;20053;-83
2021/11/16 06:32:37;;;;;;;27.55;20.73;;;12.00;87.40;;;;;;5006600;28;20113;-81
2021/11/16 06:35:04;;;;;;;24.65;19.77;;;11.90;87.30;;;;;;4989021;28;20134;-86
2021/11/16 06:37:30;;;;;;;26.88;20.25;;;12.00;87.50;;;;;;5007342;28;20485;-85
2021/11/16 06:39:56;;;;;;;24.35;19.50;;;12.00;87.50;;;;;;5006946;28;20038;-80
2021/11/16 06:42:22;;;;;;;30.10;22.75;;;12.00;87.50;;;;;;5007068;28;20463;-81
2021/11/16 06:44:48;;;;;;;26.05;20.52;;;12.00;87.50;;;;;;5007256;28;20033;-86
2021/11/16 06:47:15;;;;;;;27.05;20.33;;;12.00;87.50;;;;;;5007448;28;20444;-80
2021/11/16 06:49:51;;;;;;;25.65;20.33;;;12.00;87.50;;;;;;5006610;28;20034;-86
2021/11/16 06:52:19;;;;;;;27.13;20.63;;;12.00;87.50;;;;;;5006286;28;20065;-86
2021/11/16 06:54:45;;;;;;;26.73;21.35;;;12.00;87.40;;;;;;4973569;28;20824;-84
2021/11/16 06:57:12;;;;;;;27.48;20.42;;;12.00;87.40;;;;;;5006609;28;20045;-87
2021/11/16 06:59:39;;;;;;;28.20;21.90;;;12.00;87.40;;;;;;5006624;28;20062;-83
2021/11/16 07:02:06;;;;;;;31.35;21.85;;;12.00;87.40;;;;;;5006514;28;20034;-82
2021/11/16 07:04:41;;;;;;;27.48;20.80;;;12.00;87.40;;;;;;4972934;28;20052;-89
2021/11/16 07:07:08;;;;;;;29.35;19.85;;;11.90;87.20;;;;;;5007064;28;20036;-84
2021/11/16 07:09:39;;;;;;;26.27;20.90;;;11.90;87.20;;;;;;5006557;28;20487;-84
2021/11/16 07:12:19;;;;;;;26.52;19.85;;;11.90;87.20;;;;;;4989903;28;20073;-84
2021/11/16 07:14:45;;;;;;;25.10;20.00;;;11.90;87.20;;;;;;4988904;28;20110;-85
2021/11/16 07:17:14;;;;;;;25.27;20.00;;;11.90;87.70;;;;;;4973444;28;20038;-85
2021/11/16 07:19:43;;;;;;;27.23;20.02;;;11.90;87.30;;;;;;4972781;28;20038;-80
2021/11/16 07:22:15;;;;;;;26.88;19.77;;;11.90;87.30;;;;;;5008080;28;20113;-84
2021/11/16 07:24:53;;;;;;;28.17;20.50;;;11.90;87.30;;;;;;5006449;28;20034;-83
2021/11/16 07:27:21;;;;;;;27.02;20.67;;;11.90;87.30;;;;;;5007023;28;20422;-85
2021/11/16 07:29:58;;;;;;;29.27;21.10;;;11.90;87.30;;;;;;5006845;28;20049;-80
2021/11/16 07:32:29;;;;;;;25.27;20.10;;;11.90;87.30;;;;;;4992102;28;20036;-82
2021/11/16 07:35:06;;;;;;;29.65;20.40;;;11.90;87.30;;;;;;4991973;28;20037;-81
2021/11/16 07:37:34;;;;;;;28.58;19.58;;;11.90;87.30;;;;;;5010007;28;20042;-80
2021/11/16 07:40:10;;;;;;;30.48;21.95;;;11.90;87.30;;;;;;4991267;28;20473;-82
2021/11/16 07:42:53;;;;;;;30.50;20.88;;;11.90;87.30;;;;;;5003916;28;20034;-83
2021/11/16 07:45:25;;;;;;;27.27;20.40;;;11.90;87.40;;;;;;4990124;28;20061;-80
2021/11/16 07:47:52;;;;;;;30.38;21.02;;;11.90;87.40;;;;;;5007549;28;20405;-81
2021/11/16 07:50:36;;;;;;;27.30;19.58;;;11.90;87.40;;;;;;4991864;28;20034;-80
2021/11/16 07:53:16;;;;;;;29.45;20.65;;;11.90;87.40;;;;;;5019045;28;20041;-80
2021/11/16 07:55:54;;;;;;;27.10;19.67;;;11.90;87.40;;;;;;5028634;28;20400;-82
2021/11/16 07:58:23;;;;;;;27.42;20.20;;;12.00;87.60;;;;;;5011817;28;20552;-79
2021/11/16 08:00:51;;;;;;;29.40;21.10;;;12.00;87.60;;;;;;5011313;28;20611;-80
2021/11/16 08:03:24;;;;;;;25.98;18.92;;;11.90;87.40;;;;;;5028976;28;20496;-77
2021/11/16 08:11:18;;;;;;;29.55;20.48;;;12.00;87.60;;;;;;5028579;28;20377;-77
2021/11/16 08:14:07;;;;;;;26.05;19.67;;;12.00;87.60;;;;;;5028282;28;20033;-80
2021/11/16 08:16:58;;;;;;;25.90;20.35;;;12.00;87.60;;;;;;5028591;28;20392;-78
2021/11/16 08:19:30;;;;;;;24.85;18.75;;;12.00;87.50;;;;;;5029068;28;20125;-80
2021/11/16 08:22:04;;;;;;;26.05;20.58;;;12.00;87.50;;;;;;5029471;28;20025;-78
2021/11/16 08:24:33;;;;;;;27.70;18.73;;;12.00;87.50;;;;;;5031446;28;20037;-79
2021/11/16 08:27:00;;;;;;;27.48;20.10;;;12.00;87.50;;;;;;4996763;28;20043;-83
2021/11/16 08:29:34;;;;;;;23.48;18.00;;;12.10;87.60;;;;;;5011183;28;20053;-79
2021/11/16 08:32:07;;;;;;;24.20;18.88;;;12.10;87.60;;;;;;5010251;28;20064;-79
2021/11/16 08:34:40;;;;;;;25.77;18.55;;;12.10;87.60;;;;;;5009170;28;20037;-79
2021/11/16 08:37:08;;;;;;;26.23;20.13;;;12.10;87.60;;;;;;4991533;28;20571;-79
2021/11/16 08:39:49;;;;;;;25.80;18.05;;;12.20;87.80;;;;;;5008737;28;20029;-80
2021/11/16 08:43:12;;;;;;;26.45;19.17;;;12.20;87.70;;;;;;4990158;28;20026;-80
2021/11/16 08:45:44;;;;;;;26.55;19.77;;;12.30;87.90;;;;;;4894512;29;20506;-79
2021/11/16 08:48:16;;;;;;;27.10;19.42;;;12.30;87.70;;;;;;4986927;28;20042;-78
2021/11/16 08:50:53;;;;;;;26.70;20.40;;;12.30;87.70;;;;;;4989149;28;20129;-78
2021/11/16 08:53:28;;;;;;;27.63;20.30;;;12.40;87.80;;;;;;4971298;28;20030;-77
2021/11/16 08:55:55;;;;;;;23.88;18.80;;;12.40;87.80;;;;;;4989120;28;20037;-78
2021/11/16 08:58:26;;;;;;;25.02;19.02;;;12.40;87.70;;;;;;4971703;28;20551;-79
2021/11/16 09:00:56;;;;;;;26.73;19.48;;;12.50;87.90;;;;;;4971039;28;20118;-80
2021/11/16 09:03:28;;;;;;;23.25;18.05;;;12.50;87.80;;;;;;4989047;28;20030;-77
2021/11/16 09:05:56;;;;;;;26.45;19.65;;;12.50;87.80;;;;;;4972123;28;20034;-78
2021/11/16 09:08:28;;;;;;;22.83;18.52;;;12.60;87.90;;;;;;4988875;28;20058;-82
2021/11/16 09:11:12;;;;;;;25.07;18.43;;;12.60;87.80;;;;;;4971730;28;20117;-79
2021/11/16 09:13:39;;;;;;;24.25;18.63;;;12.70;88.00;;;;;;4995485;28;20283;-80
2021/11/16 09:16:13;;;;;;;22.95;19.17;;;12.70;87.90;;;;;;4965834;28;20030;-81
2021/11/16 09:18:43;;;;;;;28.52;20.42;;;12.80;88.00;;;;;;5010489;28;20091;-82
2021/11/16 09:21:20;;;;;;;23.60;18.70;;;12.90;88.50;;;;;;5023316;28;20161;-77
2021/11/16 09:23:50;;;;;;;28.05;18.00;;;13.00;88.10;;;;;;5017813;28;20033;-78
2021/11/16 09:29:03;;;;;;;28.15;18.67;;;13.30;88.90;;;;;;5017296;28;20034;-79
2021/11/16 09:31:35;;;;;;;26.95;18.23;;;13.40;89.10;;;;;;5019940;28;20065;-78
2021/11/16 09:34:23;;;;;;;21.83;16.85;;;13.60;89.50;;;;;;5022631;28;20505;-77
2021/11/16 09:37:05;;;;;;;21.83;17.13;;;13.70;89.60;;;;;;5020953;28;20049;-78
2021/11/16 09:39:47;;;;;;;19.90;15.10;;;13.90;89.80;;;;;;5020748;28;20125;-78
2021/11/16 09:42:28;;;;;;;20.10;15.25;;;14.00;89.80;;;;;;5020047;28;20066;-78
2021/11/16 09:45:06;;;;;;;19.83;14.30;;;14.10;89.70;;;;;;5022822;28;20030;-78
2021/11/16 09:47:37;;;;;;;19.10;14.52;;;14.20;89.70;;;;;;5021511;28;20046;-77
2021/11/16 09:50:10;;;;;;;19.52;14.68;;;14.30;89.70;;;;;;5021794;28;20061;-78
2021/11/16 09:52:42;;;;;;;18.10;14.23;;;14.40;89.70;;;;;;4983927;28;20038;-81
2021/11/16 09:55:21;;;;;;;22.23;15.37;;;14.50;89.60;;;;;;4999705;28;20030;-79
2021/11/16 09:57:54;;;;;;;18.27;12.95;;;14.60;89.60;;;;;;5005878;28;20037;-81
2021/11/16 10:00:24;;;;;;;16.10;12.40;;;14.80;89.70;;;;;;5005102;28;20543;-80
2021/11/16 10:02:54;;;;;;;15.25;12.32;;;14.80;89.40;;;;;;5006280;28;20030;-79
2021/11/16 10:05:25;;;;;;;15.10;11.75;;;14.90;89.40;;;;;;5004255;28;20030;-78
2021/11/16 10:07:59;;;;;;;16.27;12.88;;;14.90;89.20;;;;;;5009008;28;20041;-78
2021/11/16 10:10:27;;;;;;;16.55;12.05;;;15.00;89.20;;;;;;5020977;28;20125;-78
2021/11/16 10:12:57;;;;;;;14.48;11.13;;;15.10;89.10;;;;;;5003279;28;20036;-79
2021/11/16 10:15:27;;;;;;;13.98;11.90;;;15.20;89.10;;;;;;5021473;28;20592;-79
2021/11/16 10:17:53;;;;;;;13.55;10.40;;;15.20;88.90;;;;;;5020940;28;20073;-78
2021/11/16 10:20:27;;;;;;;13.15;10.70;;;15.30;88.80;;;;;;5002786;28;20033;-78
2021/11/16 10:22:57;;;;;;;11.75;10.55;;;15.40;88.70;;;;;;5020956;28;20100;-79
2021/11/16 10:25:26;;;;;;;14.50;11.23;;;15.40;88.60;;;;;;5023509;28;20021;-80
2021/11/16 10:27:58;;;;;;;13.27;11.52;;;15.50;88.50;;;;;;5021519;28;20061;-77
2021/11/16 10:30:27;;;;;;;13.40;10.95;;;15.50;88.30;;;;;;5001932;28;20093;-79
2021/11/16 10:33:14;;;;;;;11.90;10.25;;;15.60;88.80;;;;;;4995453;28;20536;-79
2021/11/16 10:35:56;;;;;;;12.98;11.23;;;15.60;88.10;;;;;;4980989;28;20453;-79
2021/11/16 10:38:23;;;;;;;12.23;10.75;;;15.70;88.00;;;;;;4998908;28;20034;-80
2021/11/16 10:40:50;;;;;;;13.25;11.85;;;15.70;88.00;;;;;;4999860;28;20049;-79
2021/11/16 10:43:19;;;;;;;11.50;10.30;;;15.80;88.00;;;;;;4984863;28;20038;-81
2021/11/16 10:45:50;;;;;;;13.23;11.35;;;15.80;87.90;;;;;;5010103;28;20039;-79
2021/11/16 10:48:20;;;;;;;10.98;9.55;;;15.80;87.80;;;;;;5030122;28;20033;-79
2021/11/16 10:50:48;;;;;;;11.90;10.45;;;15.90;87.80;;;;;;5033675;28;20033;-80
2021/11/16 10:53:21;;;;;;;10.25;9.23;;;15.90;87.70;;;;;;5014222;28;20132;-79
2021/11/16 10:55:47;;;;;;;11.52;9.07;;;16.00;87.70;;;;;;5043352;28;20057;-78
2021/11/16 10:58:15;;;;;;;9.57;8.55;;;16.10;87.70;;;;;;5029782;28;20045;-78
2021/11/16 11:00:50;;;;;;;12.45;9.82;;;16.20;87.70;;;;;;5028798;28;20488;-81
2021/11/16 11:03:36;;;;;;;11.20;9.52;;;16.30;87.70;;;;;;5026103;28;20025;-80
2021/11/16 11:06:20;;;;;;;10.02;8.45;;;16.30;87.40;;;;;;5045151;28;20021;-80
2021/11/16 11:08:58;;;;;;;10.38;9.35;;;16.40;87.50;;;;;;5046698;28;20502;-80
2021/11/16 11:11:37;;;;;;;10.38;8.75;;;16.40;87.30;;;;;;5054261;28;20080;-81
2021/11/16 11:14:06;;;;;;;10.50;9.40;;;16.50;87.30;;;;;;5053605;28;20025;-80
2021/11/16 11:16:51;;;;;;;11.40;9.60;;;16.50;87.20;;;;;;5049064;28;20101;-82
2021/11/16 11:19:25;;;;;;;10.43;9.23;;;16.60;87.20;;;;;;5031834;28;20041;-78
2021/11/16 11:21:58;;;;;;;8.98;8.07;;;16.70;87.20;;;;;;5025594;28;20017;-80
2021/11/16 11:27:37;;;;;;;9.23;7.93;;;16.70;86.90;;;;;;5037374;28;20426;-80
2021/11/16 11:30:13;;;;;;;8.70;7.80;;;16.80;86.90;;;;;;5008450;28;20026;-81
2021/11/16 11:32:42;;;;;;;9.43;8.43;;;16.80;86.70;;;;;;5032263;28;20030;-80
2021/11/16 11:35:09;;;;;;;9.70;8.10;;;16.80;86.60;;;;;;5023657;28;20033;-78
2021/11/16 11:37:45;;;;;;;8.50;7.63;;;16.90;86.70;;;;;;5044773;28;20199;-79
2021/11/16 11:40:16;;;;;;;9.48;8.57;;;16.90;86.60;;;;;;5042748;28;20037;-76
2021/11/16 11:42:49;;;;;;;10.05;8.40;;;16.90;86.50;;;;;;5009939;28;20037;-76
2021/11/16 11:45:28;;;;;;;8.95;8.05;;;16.90;86.40;;;;;;5037916;28;20476;-76
2021/11/16 11:48:00;;;;;;;8.88;7.97;;;17.00;86.40;;;;;;5004059;28;20049;-80
2021/11/16 11:50:39;;;;;;;8.73;7.82;;;17.00;86.40;;;;;;5018226;28;20045;-76
2021/11/16 11:53:18;;;;;;;9.38;8.43;;;17.00;86.30;;;;;;5008410;28;20202;-77
2021/11/16 11:55:56;;;;;;;9.77;8.77;;;17.10;86.40;;;;;;5011466;28;20029;-77
2021/11/16 11:58:24;;;;;;;9.38;8.40;;;17.10;86.30;;;;;;5010750;28;20034;-78
2021/11/16 12:00:56;;;;;;;9.15;8.18;;;17.20;86.40;;;;;;4993068;28;20040;-77
2021/11/16 12:03:23;;;;;;;9.07;8.13;;;17.20;86.30;;;;;;5011341;28;20527;-77
2021/11/16 12:05:50;;;;;;;8.50;7.60;;;17.20;86.20;;;;;;5009977;28;20474;-77
2021/11/16 12:08:16;;;;;;;7.70;6.95;;;17.30;86.20;;;;;;5009887;28;20029;-76
2021/11/16 12:10:45;;;;;;;9.05;8.18;;;17.40;86.30;;;;;;4992903;28;20032;-77
2021/11/16 12:13:11;;;;;;;8.43;7.55;;;17.40;86.10;;;;;;4991170;28;20735;-77
2021/11/16 12:15:46;;;;;;;8.40;7.53;;;17.50;86.20;;;;;;5009258;28;20084;-78
2021/11/16 12:18:12;;;;;;;8.05;6.75;;;17.50;86.10;;;;;;4990783;28;20037;-81
2021/11/16 12:20:51;;;;;;;7.70;6.90;;;17.60;86.10;;;;;;4997282;28;20026;-77
2021/11/16 12:23:39;;;;;;;7.90;7.13;;;17.60;85.90;;;;;;5009238;28;20029;-79
2021/11/16 12:26:10;;;;;;;7.90;7.10;;;17.60;85.80;;;;;;4991457;28;20064;-77
2021/11/16 12:28:37;;;;;;;6.85;6.15;;;17.70;85.80;;;;;;4991139;28;20029;-77
2021/11/16 12:31:04;;;;;;;7.63;6.82;;;17.70;85.70;;;;;;5010011;28;20081;-77
2021/11/16 12:33:48;;;;;;;7.13;6.43;;;17.70;85.70;;;;;;4991734;28;20045;-79
2021/11/16 12:36:31;;;;;;;7.65;5.80;;;17.70;85.40;;;;;;5012569;28;20026;-80
2021/11/16 12:39:21;;;;;;;6.22;5.63;;;17.70;85.40;;;;;;5009515;28;20174;-79
2021/11/16 12:41:51;;;;;;;6.45;5.75;;;17.70;85.30;;;;;;5024953;28;20057;-78
2021/11/16 12:44:38;;;;;;;5.43;4.88;;;17.70;85.30;;;;;;5020003;28;20316;-79
2021/11/16 12:47:06;;;;;;;5.30;4.65;;;17.60;85.10;;;;;;5009647;28;20057;-78
2021/11/16 12:49:37;;;;;;;5.53;5.03;;;17.70;85.10;;;;;;4993302;28;20038;-79
2021/11/16 12:52:06;;;;;;;5.43;4.85;;;17.60;84.80;;;;;;4989449;28;20025;-81
2021/11/16 12:54:36;;;;;;;4.95;4.10;;;17.60;84.70;;;;;;4956343;28;20062;-80
2021/11/16 12:57:05;;;;;;;5.45;4.57;;;17.60;84.60;;;;;;4988634;28;20512;-79
2021/11/16 12:59:32;;;;;;;4.32;3.92;;;17.60;84.60;;;;;;5005645;28;20485;-80
2021/11/16 13:02:00;;;;;;;6.25;5.38;;;17.50;84.90;;;;;;5008375;28;20042;-79
2021/11/16 13:04:46;;;;;;;5.55;4.93;;;17.50;84.30;;;;;;4992094;28;20025;-78
2021/11/16 13:07:20;;;;;;;4.72;4.22;;;17.50;84.30;;;;;;5009167;28;20030;-83
2021/11/16 13:09:50;;;;;;;4.70;4.22;;;17.40;84.10;;;;;;4993373;28;20026;-79
2021/11/16 13:12:37;;;;;;;4.78;4.28;;;17.40;84.20;;;;;;4990649;28;20034;-80
2021/11/16 13:15:21;;;;;;;4.85;4.38;;;17.40;84.10;;;;;;4996535;28;20092;-79